Terminal Aerodrome Forecast
Issued by NWS

Current Version | Previous Version | Graphics & Text | Print | Product List | Glossary On
Versions: 1 2 3 4 5 6 7 8 9 10 11 12 13 14 15 16 17 18 19
000
FTUS41 KPBZ 012100 AAA
TAFHLG
TAF AMD
KHLG 012141Z 0122/0218 23008KT 1SM -SNRA OVC003
     FM012300 24008KT 3SM -SNRA SCT004 OVC008
      TEMPO 0123/0202 2SM -SNRA OVC004
     FM020200 28006KT 3SM -SHSN OVC008
     FM020700 28010KT P6SM -SHSN OVC020
     FM021300 27010KT P6SM OVC025=

USA.gov is the U.S. government's official web portal to all federal, state and local government web resources and services.